createdAt,value
2023-01-25T00:01:05.992Z,21.47
2023-01-25T00:06:10.998Z,19.17
2023-01-25T00:11:17.095Z,21.67
2023-01-25T00:16:19.011Z,19.33
2023-01-25T00:21:23.047Z,19.23
2023-01-25T00:26:52.595Z,21.30
2023-01-25T00:32:18.421Z,21.20
2023-01-25T00:37:50.535Z,18.50
2023-01-25T00:42:52.600Z,20.33
2023-01-25T00:48:00.548Z,19.37
2023-01-25T00:53:05.074Z,20.47
2023-01-25T00:58:09.158Z,21.80
2023-01-25T01:03:24.660Z,18.33
2023-01-25T01:08:26.466Z,21.03
2023-01-25T01:13:34.413Z,19.67
2023-01-25T01:18:42.883Z,19.00
2023-01-25T01:23:45.310Z,18.23
2023-01-25T01:28:48.621Z,20.67
2023-01-25T01:33:52.400Z,19.03
2023-01-25T01:38:54.220Z,17.97
2023-01-25T01:43:56.112Z,20.00
2023-01-25T01:49:04.080Z,19.00
2023-01-25T01:54:09.772Z,17.13
2023-01-25T01:59:12.255Z,17.53
2023-01-25T02:04:18.802Z,18.20
2023-01-25T02:09:41.134Z,17.93
2023-01-25T02:14:52.106Z,18.50
2023-01-25T02:20:09.215Z,18.87
2023-01-25T02:25:13.662Z,20.30
2023-01-25T02:30:25.628Z,20.13
2023-01-25T02:36:00.925Z,18.27
2023-01-25T02:41:08.585Z,22.30
2023-01-25T02:46:22.475Z,20.43
2023-01-25T02:51:26.692Z,19.20
2023-01-25T02:56:31.219Z,19.93
2023-01-25T03:01:37.436Z,19.27
2023-01-25T03:06:43.531Z,18.53
2023-01-25T03:11:45.590Z,21.33
2023-01-25T03:16:50.323Z,19.90
2023-01-25T03:22:01.483Z,20.33
2023-01-25T03:27:14.190Z,20.93
2023-01-25T03:32:18.411Z,21.47
2023-01-25T03:37:27.362Z,21.60
2023-01-25T03:42:35.502Z,22.23
2023-01-25T03:47:45.899Z,22.27
2023-01-25T03:52:50.672Z,22.30
2023-01-25T03:57:57.203Z,22.20
2023-01-25T04:03:02.954Z,21.20
2023-01-25T04:08:05.068Z,23.00
2023-01-25T04:13:11.383Z,22.23
2023-01-25T04:18:17.008Z,21.87
2023-01-25T04:23:18.886Z,21.57
2023-01-25T04:28:28.549Z,20.27
2023-01-25T04:33:31.889Z,22.33
2023-01-25T04:38:36.200Z,20.27
2023-01-25T04:43:45.263Z,19.07
2023-01-25T04:48:47.001Z,19.53
2023-01-25T04:53:51.107Z,20.93
2023-01-25T04:58:53.517Z,21.87
2023-01-25T05:03:57.590Z,21.07
2023-01-25T05:09:02.413Z,23.60
2023-01-25T05:14:05.592Z,21.80
2023-01-25T05:19:20.625Z,21.30
2023-01-25T05:24:28.672Z,21.90
2023-01-25T05:29:37.859Z,24.23
2023-01-25T05:34:42.632Z,24.20
2023-01-25T05:39:44.654Z,26.43
2023-01-25T05:44:56.934Z,24.37
2023-01-25T05:50:01.529Z,23.73
2023-01-25T05:55:05.083Z,23.77
2023-01-25T06:00:10.682Z,23.20
2023-01-25T06:05:15.100Z,23.23
2023-01-25T06:10:17.176Z,23.10
2023-01-25T06:15:22.473Z,22.70
2023-01-25T06:20:34.137Z,23.63
2023-01-25T06:25:44.639Z,23.90
2023-01-25T06:30:46.826Z,23.63
2023-01-25T06:35:48.883Z,23.33
2023-01-25T06:41:40.163Z,23.93
2023-01-25T07:25:35.911Z,19.03
2023-01-25T08:21:03.771Z,19.87
2023-01-25T09:36:42.004Z,14.93
2023-01-25T09:48:56.419Z,13.97
2023-01-25T10:58:59.464Z,21.57
2023-01-25T11:04:53.754Z,23.90
2023-01-25T12:21:13.391Z,23.63
2023-01-25T13:24:44.974Z,25.20
2023-01-25T13:30:58.339Z,25.00
2023-01-25T17:06:50.899Z,44.80
2023-01-25T17:12:17.417Z,44.47
2023-01-25T17:17:46.384Z,45.60
2023-01-25T17:22:58.415Z,47.20
2023-01-25T17:28:22.246Z,44.57
2023-01-25T17:33:26.747Z,44.63
2023-01-25T17:39:23.899Z,46.30
2023-01-25T17:44:37.032Z,43.37
2023-01-25T17:49:46.256Z,46.43
2023-01-25T17:54:48.082Z,58.40
2023-01-25T17:59:54.416Z,50.10
2023-01-25T18:05:02.477Z,50.73
2023-01-25T18:10:07.613Z,49.80
2023-01-25T18:15:11.538Z,49.07
2023-01-25T18:20:24.376Z,47.03
2023-01-25T18:48:30.133Z,62.93
2023-01-25T19:00:33.343Z,44.23
2023-01-25T19:11:30.481Z,43.53
2023-01-25T19:29:17.178Z,44.83
2023-01-25T19:41:47.257Z,44.97
2023-01-25T19:53:40.446Z,44.13
2023-01-25T20:11:28.345Z,42.80
2023-01-25T20:16:33.681Z,45.03
2023-01-25T20:27:05.543Z,47.43
2023-01-25T20:32:32.987Z,47.17
2023-01-25T20:37:37.155Z,48.10
2023-01-25T20:42:41.612Z,46.70
2023-01-25T21:18:11.877Z,48.17
2023-01-25T21:23:16.457Z,45.90
2023-01-25T21:54:58.504Z,48.63
2023-01-25T22:11:57.716Z,49.43
2023-01-25T22:17:02.274Z,50.33
2023-01-25T22:22:04.057Z,48.37
2023-01-25T22:33:38.463Z,41.60
2023-01-25T22:39:03.632Z,41.47
2023-01-25T22:44:46.225Z,43.60
2023-01-25T22:49:47.981Z,39.77
2023-01-25T22:55:36.966Z,46.03
2023-01-25T23:00:40.040Z,44.27
2023-01-25T23:05:58.560Z,41.17
2023-01-25T23:11:01.912Z,44.97
2023-01-25T23:16:12.388Z,43.80
2023-01-25T23:21:14.690Z,44.47
2023-01-25T23:26:48.004Z,45.13
2023-01-25T23:31:49.826Z,44.33
2023-01-25T23:36:55.644Z,46.83
2023-01-25T23:41:57.767Z,42.53
2023-01-25T23:47:03.754Z,47.60
2023-01-25T23:52:08.701Z,40.87
2023-01-25T23:57:11.408Z,43.73
